sensor_id;sensor_type;location;lat;lon;timestamp;P1;durP1;ratioP1;P2;durP2;ratioP2
17796;SDS011;55596;53.554;9.916;2022-09-09T00:02:20;219.17;;;64.23;;
17796;SDS011;55596;53.554;9.916;2022-09-09T00:04:52;242.83;;;68.83;;
17796;SDS011;55596;53.554;9.916;2022-09-09T00:07:30;251.60;;;71.00;;
17796;SDS011;55596;53.554;9.916;2022-09-09T00:10:06;253.30;;;66.70;;
17796;SDS011;55596;53.554;9.916;2022-09-09T00:12:41;201.13;;;59.97;;
17796;SDS011;55596;53.554;9.916;2022-09-09T00:15:19;202.17;;;61.13;;
17796;SDS011;55596;53.554;9.916;2022-09-09T00:17:50;194.27;;;61.20;;
17796;SDS011;55596;53.554;9.916;2022-09-09T00:20:24;218.60;;;62.77;;
17796;SDS011;55596;53.554;9.916;2022-09-09T00:23:00;182.93;;;56.43;;
17796;SDS011;55596;53.554;9.916;2022-09-09T00:25:33;223.30;;;55.63;;
17796;SDS011;55596;53.554;9.916;2022-09-09T00:28:07;146.93;;;51.20;;
17796;SDS011;55596;53.554;9.916;2022-09-09T00:30:40;150.80;;;51.03;;
17796;SDS011;55596;53.554;9.916;2022-09-09T00:33:09;154.23;;;49.30;;
17796;SDS011;55596;53.554;9.916;2022-09-09T00:35:42;152.70;;;50.77;;
17796;SDS011;55596;53.554;9.916;2022-09-09T00:40:41;152.07;;;51.63;;
17796;SDS011;55596;53.554;9.916;2022-09-09T00:43:21;131.50;;;47.63;;
17796;SDS011;55596;53.554;9.916;2022-09-09T00:45:57;133.03;;;51.80;;
17796;SDS011;55596;53.554;9.916;2022-09-09T00:48:35;172.07;;;53.13;;
17796;SDS011;55596;53.554;9.916;2022-09-09T00:51:17;133.67;;;52.97;;
17796;SDS011;55596;53.554;9.916;2022-09-09T00:53:57;154.03;;;52.07;;
17796;SDS011;55596;53.554;9.916;2022-09-09T00:56:34;130.13;;;51.60;;
17796;SDS011;55596;53.554;9.916;2022-09-09T00:59:08;150.73;;;55.07;;
17796;SDS011;55596;53.554;9.916;2022-09-09T01:01:43;137.70;;;54.73;;
17796;SDS011;55596;53.554;9.916;2022-09-09T01:04:10;185.70;;;59.40;;
17796;SDS011;55596;53.554;9.916;2022-09-09T01:06:44;164.47;;;56.50;;
17796;SDS011;55596;53.554;9.916;2022-09-09T01:09:17;209.93;;;60.83;;
17796;SDS011;55596;53.554;9.916;2022-09-09T01:11:52;174.90;;;56.70;;
17796;SDS011;55596;53.554;9.916;2022-09-09T01:14:29;170.23;;;56.87;;
17796;SDS011;55596;53.554;9.916;2022-09-09T01:17:05;195.47;;;59.70;;
17796;SDS011;55596;53.554;9.916;2022-09-09T01:19:39;223.80;;;59.83;;
17796;SDS011;55596;53.554;9.916;2022-09-09T01:22:22;167.80;;;53.67;;
17796;SDS011;55596;53.554;9.916;2022-09-09T01:25:09;175.97;;;54.63;;
17796;SDS011;55596;53.554;9.916;2022-09-09T01:27:47;188.27;;;56.83;;
17796;SDS011;55596;53.554;9.916;2022-09-09T01:30:16;178.53;;;57.40;;
17796;SDS011;55596;53.554;9.916;2022-09-09T01:32:44;214.30;;;56.47;;
17796;SDS011;55596;53.554;9.916;2022-09-09T01:35:22;194.47;;;57.57;;
17796;SDS011;55596;53.554;9.916;2022-09-09T01:38:00;218.33;;;59.77;;
17796;SDS011;55596;53.554;9.916;2022-09-09T01:40:27;215.77;;;58.70;;
17796;SDS011;55596;53.554;9.916;2022-09-09T01:42:55;233.37;;;59.90;;
17796;SDS011;55596;53.554;9.916;2022-09-09T01:45:22;278.03;;;64.07;;
17796;SDS011;55596;53.554;9.916;2022-09-09T01:47:50;277.63;;;60.10;;
17796;SDS011;55596;53.554;9.916;2022-09-09T01:50:18;313.40;;;65.20;;
17796;SDS011;55596;53.554;9.916;2022-09-09T01:52:47;307.17;;;63.07;;
17796;SDS011;55596;53.554;9.916;2022-09-09T01:55:16;604.63;;;75.00;;
17796;SDS011;55596;53.554;9.916;2022-09-09T01:57:47;353.87;;;63.07;;
17796;SDS011;55596;53.554;9.916;2022-09-09T02:00:23;468.80;;;65.87;;
17796;SDS011;55596;53.554;9.916;2022-09-09T02:02:52;776.27;;;75.07;;
17796;SDS011;55596;53.554;9.916;2022-09-09T02:05:28;582.23;;;70.73;;
17796;SDS011;55596;53.554;9.916;2022-09-09T02:08:03;355.53;;;59.57;;
17796;SDS011;55596;53.554;9.916;2022-09-09T02:10:35;293.60;;;58.13;;
17796;SDS011;55596;53.554;9.916;2022-09-09T02:13:09;452.30;;;65.17;;
17796;SDS011;55596;53.554;9.916;2022-09-09T02:15:45;240.47;;;56.53;;
17796;SDS011;55596;53.554;9.916;2022-09-09T02:18:17;242.70;;;58.27;;
17796;SDS011;55596;53.554;9.916;2022-09-09T02:20:50;196.97;;;57.10;;
17796;SDS011;55596;53.554;9.916;2022-09-09T02:23:18;200.63;;;54.57;;
17796;SDS011;55596;53.554;9.916;2022-09-09T02:25:46;215.23;;;54.20;;
17796;SDS011;55596;53.554;9.916;2022-09-09T02:28:16;473.67;;;66.97;;
17796;SDS011;55596;53.554;9.916;2022-09-09T02:30:47;235.77;;;55.37;;
17796;SDS011;55596;53.554;9.916;2022-09-09T02:33:20;624.20;;;64.90;;
17796;SDS011;55596;53.554;9.916;2022-09-09T02:35:49;491.00;;;64.57;;
17796;SDS011;55596;53.554;9.916;2022-09-09T02:38:18;331.47;;;59.73;;
17796;SDS011;55596;53.554;9.916;2022-09-09T02:40:47;859.63;;;78.50;;
17796;SDS011;55596;53.554;9.916;2022-09-09T02:43:14;469.53;;;64.23;;
17796;SDS011;55596;53.554;9.916;2022-09-09T02:45:44;458.77;;;62.33;;
17796;SDS011;55596;53.554;9.916;2022-09-09T02:48:20;467.20;;;62.10;;
17796;SDS011;55596;53.554;9.916;2022-09-09T02:50:55;450.07;;;64.10;;
17796;SDS011;55596;53.554;9.916;2022-09-09T02:53:32;319.30;;;59.60;;
17796;SDS011;55596;53.554;9.916;2022-09-09T02:56:05;209.27;;;54.33;;
17796;SDS011;55596;53.554;9.916;2022-09-09T02:58:39;160.83;;;49.53;;
17796;SDS011;55596;53.554;9.916;2022-09-09T03:01:08;174.10;;;52.87;;
17796;SDS011;55596;53.554;9.916;2022-09-09T03:03:36;159.77;;;50.97;;
17796;SDS011;55596;53.554;9.916;2022-09-09T03:06:03;192.93;;;54.43;;
17796;SDS011;55596;53.554;9.916;2022-09-09T03:08:31;161.03;;;47.60;;
17796;SDS011;55596;53.554;9.916;2022-09-09T03:10:58;141.17;;;48.57;;
17796;SDS011;55596;53.554;9.916;2022-09-09T03:13:26;164.10;;;50.50;;
17796;SDS011;55596;53.554;9.916;2022-09-09T03:15:53;134.63;;;46.83;;
17796;SDS011;55596;53.554;9.916;2022-09-09T03:18:21;139.20;;;46.93;;
17796;SDS011;55596;53.554;9.916;2022-09-09T03:20:48;146.17;;;46.93;;
17796;SDS011;55596;53.554;9.916;2022-09-09T03:23:16;139.77;;;47.53;;
17796;SDS011;55596;53.554;9.916;2022-09-09T03:25:46;151.60;;;48.10;;
17796;SDS011;55596;53.554;9.916;2022-09-09T03:28:13;157.67;;;44.90;;
17796;SDS011;55596;53.554;9.916;2022-09-09T03:30:40;148.70;;;46.20;;
17796;SDS011;55596;53.554;9.916;2022-09-09T03:33:07;146.87;;;46.07;;
17796;SDS011;55596;53.554;9.916;2022-09-09T03:35:35;122.13;;;42.80;;
17796;SDS011;55596;53.554;9.916;2022-09-09T03:38:02;110.83;;;43.23;;
17796;SDS011;55596;53.554;9.916;2022-09-09T03:40:29;132.53;;;45.07;;
17796;SDS011;55596;53.554;9.916;2022-09-09T03:42:56;120.10;;;45.77;;
17796;SDS011;55596;53.554;9.916;2022-09-09T03:45:23;126.93;;;44.07;;
17796;SDS011;55596;53.554;9.916;2022-09-09T03:47:50;126.77;;;44.93;;
17796;SDS011;55596;53.554;9.916;2022-09-09T03:50:17;136.70;;;46.27;;
17796;SDS011;55596;53.554;9.916;2022-09-09T03:52:45;113.87;;;44.10;;
17796;SDS011;55596;53.554;9.916;2022-09-09T03:55:12;119.17;;;42.73;;
17796;SDS011;55596;53.554;9.916;2022-09-09T03:57:39;134.23;;;47.00;;
17796;SDS011;55596;53.554;9.916;2022-09-09T04:00:07;116.33;;;43.83;;
17796;SDS011;55596;53.554;9.916;2022-09-09T04:02:34;122.80;;;43.23;;
17796;SDS011;55596;53.554;9.916;2022-09-09T04:05:01;126.83;;;43.83;;
17796;SDS011;55596;53.554;9.916;2022-09-09T04:07:28;120.57;;;43.63;;
17796;SDS011;55596;53.554;9.916;2022-09-09T04:09:56;111.13;;;44.20;;
17796;SDS011;55596;53.554;9.916;2022-09-09T04:12:23;129.50;;;45.57;;
17796;SDS011;55596;53.554;9.916;2022-09-09T04:14:50;135.20;;;46.43;;
17796;SDS011;55596;53.554;9.916;2022-09-09T04:17:16;122.13;;;44.33;;
17796;SDS011;55596;53.554;9.916;2022-09-09T04:19:43;119.70;;;45.20;;
17796;SDS011;55596;53.554;9.916;2022-09-09T04:22:10;136.17;;;47.30;;
17796;SDS011;55596;53.554;9.916;2022-09-09T04:24:37;147.33;;;46.83;;
17796;SDS011;55596;53.554;9.916;2022-09-09T04:27:05;124.27;;;45.93;;
17796;SDS011;55596;53.554;9.916;2022-09-09T04:29:32;122.87;;;45.03;;
17796;SDS011;55596;53.554;9.916;2022-09-09T04:31:59;134.53;;;47.10;;
17796;SDS011;55596;53.554;9.916;2022-09-09T04:34:26;127.63;;;45.77;;
17796;SDS011;55596;53.554;9.916;2022-09-09T04:36:53;116.37;;;44.50;;
17796;SDS011;55596;53.554;9.916;2022-09-09T04:39:21;125.13;;;45.43;;
17796;SDS011;55596;53.554;9.916;2022-09-09T04:41:48;109.40;;;41.37;;
17796;SDS011;55596;53.554;9.916;2022-09-09T04:44:19;107.80;;;42.07;;
17796;SDS011;55596;53.554;9.916;2022-09-09T04:46:46;111.13;;;40.57;;
17796;SDS011;55596;53.554;9.916;2022-09-09T04:49:13;101.83;;;39.43;;
17796;SDS011;55596;53.554;9.916;2022-09-09T04:51:39;102.30;;;40.33;;
17796;SDS011;55596;53.554;9.916;2022-09-09T04:54:06;102.40;;;38.47;;
17796;SDS011;55596;53.554;9.916;2022-09-09T04:56:33;113.70;;;39.47;;
17796;SDS011;55596;53.554;9.916;2022-09-09T04:59:01;94.87;;;37.97;;
17796;SDS011;55596;53.554;9.916;2022-09-09T05:01:30;91.70;;;37.30;;
17796;SDS011;55596;53.554;9.916;2022-09-09T05:03:57;86.27;;;36.30;;
17796;SDS011;55596;53.554;9.916;2022-09-09T05:06:24;117.43;;;37.17;;
17796;SDS011;55596;53.554;9.916;2022-09-09T05:08:51;73.80;;;32.53;;
17796;SDS011;55596;53.554;9.916;2022-09-09T05:11:18;75.57;;;32.93;;
17796;SDS011;55596;53.554;9.916;2022-09-09T05:13:48;70.57;;;29.53;;
17796;SDS011;55596;53.554;9.916;2022-09-09T05:16:16;61.57;;;29.40;;
17796;SDS011;55596;53.554;9.916;2022-09-09T05:18:45;56.97;;;29.43;;
17796;SDS011;55596;53.554;9.916;2022-09-09T05:21:13;69.53;;;30.07;;
17796;SDS011;55596;53.554;9.916;2022-09-09T05:23:40;66.10;;;29.93;;
17796;SDS011;55596;53.554;9.916;2022-09-09T05:26:09;60.17;;;29.17;;
17796;SDS011;55596;53.554;9.916;2022-09-09T05:28:39;60.50;;;30.33;;
17796;SDS011;55596;53.554;9.916;2022-09-09T05:31:07;65.90;;;29.83;;
17796;SDS011;55596;53.554;9.916;2022-09-09T05:33:36;68.37;;;29.17;;
17796;SDS011;55596;53.554;9.916;2022-09-09T05:36:07;62.43;;;28.47;;
17796;SDS011;55596;53.554;9.916;2022-09-09T05:38:38;56.97;;;28.37;;
17796;SDS011;55596;53.554;9.916;2022-09-09T05:41:05;49.97;;;27.50;;
17796;SDS011;55596;53.554;9.916;2022-09-09T05:43:34;65.47;;;29.67;;
17796;SDS011;55596;53.554;9.916;2022-09-09T05:46:02;53.27;;;27.37;;
17796;SDS011;55596;53.554;9.916;2022-09-09T05:48:31;59.60;;;27.03;;
17796;SDS011;55596;53.554;9.916;2022-09-09T05:50:59;53.20;;;26.30;;
17796;SDS011;55596;53.554;9.916;2022-09-09T05:53:29;48.13;;;24.73;;
17796;SDS011;55596;53.554;9.916;2022-09-09T05:55:59;35.50;;;21.60;;
17796;SDS011;55596;53.554;9.916;2022-09-09T05:58:28;42.83;;;23.23;;
17796;SDS011;55596;53.554;9.916;2022-09-09T06:01:00;37.40;;;21.03;;
17796;SDS011;55596;53.554;9.916;2022-09-09T06:03:28;36.43;;;21.30;;
17796;SDS011;55596;53.554;9.916;2022-09-09T06:05:58;33.87;;;20.77;;
17796;SDS011;55596;53.554;9.916;2022-09-09T06:08:26;35.20;;;21.60;;
17796;SDS011;55596;53.554;9.916;2022-09-09T06:11:00;32.40;;;18.80;;
17796;SDS011;55596;53.554;9.916;2022-09-09T06:13:28;19.97;;;15.40;;
17796;SDS011;55596;53.554;9.916;2022-09-09T06:15:55;32.23;;;18.23;;
17796;SDS011;55596;53.554;9.916;2022-09-09T06:18:23;25.77;;;15.70;;
17796;SDS011;55596;53.554;9.916;2022-09-09T06:20:54;27.80;;;16.90;;
17796;SDS011;55596;53.554;9.916;2022-09-09T06:23:21;30.47;;;14.23;;
17796;SDS011;55596;53.554;9.916;2022-09-09T06:25:50;23.57;;;14.20;;
17796;SDS011;55596;53.554;9.916;2022-09-09T06:28:17;22.60;;;13.20;;
17796;SDS011;55596;53.554;9.916;2022-09-09T06:30:44;23.27;;;12.50;;
17796;SDS011;55596;53.554;9.916;2022-09-09T06:33:12;33.20;;;14.07;;
17796;SDS011;55596;53.554;9.916;2022-09-09T06:35:39;18.70;;;10.40;;
17796;SDS011;55596;53.554;9.916;2022-09-09T06:38:06;19.47;;;9.83;;
17796;SDS011;55596;53.554;9.916;2022-09-09T06:40:33;18.43;;;10.37;;
17796;SDS011;55596;53.554;9.916;2022-09-09T06:43:01;17.13;;;10.57;;
17796;SDS011;55596;53.554;9.916;2022-09-09T06:45:28;18.23;;;11.13;;
17796;SDS011;55596;53.554;9.916;2022-09-09T06:47:56;18.20;;;10.67;;
17796;SDS011;55596;53.554;9.916;2022-09-09T06:50:22;14.60;;;9.07;;
17796;SDS011;55596;53.554;9.916;2022-09-09T06:52:49;18.20;;;9.57;;
17796;SDS011;55596;53.554;9.916;2022-09-09T06:55:16;15.17;;;9.00;;
17796;SDS011;55596;53.554;9.916;2022-09-09T06:57:44;13.50;;;9.13;;
17796;SDS011;55596;53.554;9.916;2022-09-09T07:00:13;28.07;;;18.13;;
17796;SDS011;55596;53.554;9.916;2022-09-09T07:02:40;14.77;;;8.93;;
17796;SDS011;55596;53.554;9.916;2022-09-09T07:05:07;11.73;;;7.03;;
17796;SDS011;55596;53.554;9.916;2022-09-09T07:07:34;12.50;;;7.60;;
17796;SDS011;55596;53.554;9.916;2022-09-09T07:10:01;7.00;;;5.03;;
17796;SDS011;55596;53.554;9.916;2022-09-09T07:12:29;9.67;;;5.30;;
17796;SDS011;55596;53.554;9.916;2022-09-09T07:14:56;7.93;;;5.27;;
17796;SDS011;55596;53.554;9.916;2022-09-09T07:17:24;8.10;;;5.43;;
17796;SDS011;55596;53.554;9.916;2022-09-09T07:19:51;8.10;;;4.97;;
17796;SDS011;55596;53.554;9.916;2022-09-09T07:22:18;10.50;;;5.50;;
17796;SDS011;55596;53.554;9.916;2022-09-09T07:24:45;8.23;;;4.43;;
17796;SDS011;55596;53.554;9.916;2022-09-09T07:27:11;11.50;;;5.43;;
17796;SDS011;55596;53.554;9.916;2022-09-09T07:29:38;8.57;;;5.23;;
17796;SDS011;55596;53.554;9.916;2022-09-09T07:32:05;9.00;;;5.10;;
17796;SDS011;55596;53.554;9.916;2022-09-09T07:34:33;10.03;;;4.73;;
17796;SDS011;55596;53.554;9.916;2022-09-09T07:37:00;8.97;;;4.30;;
17796;SDS011;55596;53.554;9.916;2022-09-09T07:39:26;8.73;;;4.70;;
17796;SDS011;55596;53.554;9.916;2022-09-09T07:41:53;6.40;;;3.70;;
17796;SDS011;55596;53.554;9.916;2022-09-09T07:44:21;6.50;;;4.03;;
17796;SDS011;55596;53.554;9.916;2022-09-09T07:46:49;8.10;;;3.93;;
17796;SDS011;55596;53.554;9.916;2022-09-09T07:49:16;6.57;;;3.70;;
17796;SDS011;55596;53.554;9.916;2022-09-09T07:51:46;8.60;;;3.60;;
17796;SDS011;55596;53.554;9.916;2022-09-09T07:54:15;6.63;;;3.73;;
17796;SDS011;55596;53.554;9.916;2022-09-09T07:56:44;6.40;;;3.73;;
17796;SDS011;55596;53.554;9.916;2022-09-09T07:59:12;6.03;;;3.20;;
17796;SDS011;55596;53.554;9.916;2022-09-09T08:01:39;4.87;;;3.13;;
17796;SDS011;55596;53.554;9.916;2022-09-09T08:04:08;6.80;;;3.40;;
17796;SDS011;55596;53.554;9.916;2022-09-09T08:06:41;10.27;;;3.67;;
17796;SDS011;55596;53.554;9.916;2022-09-09T08:09:12;9.83;;;3.43;;
17796;SDS011;55596;53.554;9.916;2022-09-09T08:11:40;4.93;;;2.77;;
17796;SDS011;55596;53.554;9.916;2022-09-09T08:14:08;6.47;;;2.63;;
17796;SDS011;55596;53.554;9.916;2022-09-09T08:16:37;6.73;;;3.07;;
17796;SDS011;55596;53.554;9.916;2022-09-09T08:19:05;8.03;;;2.80;;
17796;SDS011;55596;53.554;9.916;2022-09-09T08:21:33;5.27;;;2.70;;
17796;SDS011;55596;53.554;9.916;2022-09-09T08:24:01;6.73;;;2.90;;
17796;SDS011;55596;53.554;9.916;2022-09-09T08:26:31;4.93;;;2.73;;
17796;SDS011;55596;53.554;9.916;2022-09-09T08:29:00;5.17;;;2.80;;
17796;SDS011;55596;53.554;9.916;2022-09-09T08:31:28;5.20;;;2.40;;
17796;SDS011;55596;53.554;9.916;2022-09-09T08:33:57;5.03;;;2.73;;
17796;SDS011;55596;53.554;9.916;2022-09-09T08:36:26;5.37;;;2.40;;
17796;SDS011;55596;53.554;9.916;2022-09-09T08:38:54;10.73;;;2.27;;
17796;SDS011;55596;53.554;9.916;2022-09-09T08:41:45;4.60;;;2.30;;
17796;SDS011;55596;53.554;9.916;2022-09-09T08:44:25;5.30;;;2.10;;
17796;SDS011;55596;53.554;9.916;2022-09-09T08:46:59;6.03;;;2.10;;
17796;SDS011;55596;53.554;9.916;2022-09-09T08:49:36;6.67;;;2.43;;
17796;SDS011;55596;53.554;9.916;2022-09-09T08:52:13;5.10;;;1.90;;
17796;SDS011;55596;53.554;9.916;2022-09-09T08:54:43;3.37;;;1.93;;
17796;SDS011;55596;53.554;9.916;2022-09-09T08:57:13;4.70;;;1.73;;
17796;SDS011;55596;53.554;9.916;2022-09-09T08:59:45;5.23;;;1.90;;
17796;SDS011;55596;53.554;9.916;2022-09-09T09:02:14;3.77;;;1.80;;
17796;SDS011;55596;53.554;9.916;2022-09-09T09:04:52;6.13;;;1.90;;
17796;SDS011;55596;53.554;9.916;2022-09-09T09:07:30;3.80;;;1.60;;
17796;SDS011;55596;53.554;9.916;2022-09-09T09:10:05;4.43;;;1.77;;
17796;SDS011;55596;53.554;9.916;2022-09-09T09:12:41;2.37;;;1.30;;
17796;SDS011;55596;53.554;9.916;2022-09-09T09:15:14;3.40;;;1.40;;
17796;SDS011;55596;53.554;9.916;2022-09-09T09:17:44;5.37;;;1.73;;
17796;SDS011;55596;53.554;9.916;2022-09-09T09:20:12;3.93;;;1.47;;
17796;SDS011;55596;53.554;9.916;2022-09-09T09:22:43;4.50;;;1.30;;
17796;SDS011;55596;53.554;9.916;2022-09-09T09:25:15;3.40;;;1.50;;
17796;SDS011;55596;53.554;9.916;2022-09-09T09:27:46;2.17;;;1.17;;
17796;SDS011;55596;53.554;9.916;2022-09-09T09:30:21;3.80;;;1.27;;
17796;SDS011;55596;53.554;9.916;2022-09-09T09:32:51;2.40;;;0.83;;
17796;SDS011;55596;53.554;9.916;2022-09-09T09:35:21;2.07;;;1.10;;
17796;SDS011;55596;53.554;9.916;2022-09-09T09:37:48;5.40;;;1.13;;
17796;SDS011;55596;53.554;9.916;2022-09-09T09:40:16;4.07;;;1.33;;
17796;SDS011;55596;53.554;9.916;2022-09-09T09:42:50;4.27;;;1.10;;
17796;SDS011;55596;53.554;9.916;2022-09-09T09:45:23;4.45;;;1.10;;
17796;SDS011;55596;53.554;9.916;2022-09-09T09:47:57;3.83;;;1.25;;
17796;SDS011;55596;53.554;9.916;2022-09-09T09:50:27;3.78;;;1.23;;
17796;SDS011;55596;53.554;9.916;2022-09-09T09:52:55;7.32;;;1.33;;
17796;SDS011;55596;53.554;9.916;2022-09-09T09:55:23;4.65;;;1.02;;
17796;SDS011;55596;53.554;9.916;2022-09-09T09:57:53;3.58;;;1.10;;
17796;SDS011;55596;53.554;9.916;2022-09-09T10:00:26;4.47;;;1.10;;
17796;SDS011;55596;53.554;9.916;2022-09-09T10:02:53;3.90;;;0.98;;
17796;SDS011;55596;53.554;9.916;2022-09-09T10:05:23;3.47;;;1.02;;
17796;SDS011;55596;53.554;9.916;2022-09-09T10:08:01;5.35;;;1.00;;
17796;SDS011;55596;53.554;9.916;2022-09-09T10:10:33;2.50;;;0.80;;
17796;SDS011;55596;53.554;9.916;2022-09-09T10:13:15;4.90;;;1.00;;
17796;SDS011;55596;53.554;9.916;2022-09-09T10:15:48;3.90;;;1.10;;
17796;SDS011;55596;53.554;9.916;2022-09-09T10:18:34;3.15;;;1.10;;
17796;SDS011;55596;53.554;9.916;2022-09-09T10:21:11;2.47;;;1.20;;
17796;SDS011;55596;53.554;9.916;2022-09-09T10:23:52;5.05;;;1.20;;
17796;SDS011;55596;53.554;9.916;2022-09-09T10:26:33;5.70;;;1.40;;
17796;SDS011;55596;53.554;9.916;2022-09-09T10:29:14;5.28;;;1.50;;
17796;SDS011;55596;53.554;9.916;2022-09-09T10:32:06;3.80;;;1.10;;
17796;SDS011;55596;53.554;9.916;2022-09-09T10:34:55;3.80;;;1.20;;
17796;SDS011;55596;53.554;9.916;2022-09-09T10:37:27;4.13;;;1.50;;
17796;SDS011;55596;53.554;9.916;2022-09-09T10:40:08;3.50;;;1.20;;
17796;SDS011;55596;53.554;9.916;2022-09-09T10:42:56;4.30;;;1.30;;
17796;SDS011;55596;53.554;9.916;2022-09-09T10:45:34;3.27;;;1.13;;
17796;SDS011;55596;53.554;9.916;2022-09-09T10:48:15;3.23;;;1.10;;
17796;SDS011;55596;53.554;9.916;2022-09-09T10:50:53;6.88;;;0.98;;
17796;SDS011;55596;53.554;9.916;2022-09-09T10:53:30;1.92;;;0.82;;
17796;SDS011;55596;53.554;9.916;2022-09-09T10:56:04;4.22;;;1.27;;
17796;SDS011;55596;53.554;9.916;2022-09-09T10:58:35;3.05;;;1.23;;
17796;SDS011;55596;53.554;9.916;2022-09-09T11:01:12;3.60;;;1.10;;
17796;SDS011;55596;53.554;9.916;2022-09-09T11:03:43;2.92;;;0.90;;
17796;SDS011;55596;53.554;9.916;2022-09-09T11:06:14;2.60;;;1.00;;
17796;SDS011;55596;53.554;9.916;2022-09-09T11:08:44;4.65;;;0.80;;
17796;SDS011;55596;53.554;9.916;2022-09-09T11:11:13;2.15;;;1.00;;
17796;SDS011;55596;53.554;9.916;2022-09-09T11:13:44;3.38;;;1.10;;
17796;SDS011;55596;53.554;9.916;2022-09-09T11:16:21;3.58;;;1.17;;
17796;SDS011;55596;53.554;9.916;2022-09-09T11:18:55;2.72;;;1.05;;
17796;SDS011;55596;53.554;9.916;2022-09-09T11:21:30;1.67;;;1.00;;
17796;SDS011;55596;53.554;9.916;2022-09-09T11:24:01;3.38;;;1.00;;
17796;SDS011;55596;53.554;9.916;2022-09-09T11:26:32;5.70;;;1.10;;
17796;SDS011;55596;53.554;9.916;2022-09-09T11:29:12;1.90;;;0.82;;
17796;SDS011;55596;53.554;9.916;2022-09-09T11:31:54;3.13;;;0.90;;
17796;SDS011;55596;53.554;9.916;2022-09-09T11:34:35;3.35;;;0.98;;
17796;SDS011;55596;53.554;9.916;2022-09-09T11:37:13;2.80;;;1.00;;
17796;SDS011;55596;53.554;9.916;2022-09-09T11:40:04;2.95;;;0.80;;
17796;SDS011;55596;53.554;9.916;2022-09-09T11:42:40;2.03;;;0.88;;
17796;SDS011;55596;53.554;9.916;2022-09-09T11:45:11;5.57;;;0.93;;
17796;SDS011;55596;53.554;9.916;2022-09-09T11:47:53;3.53;;;1.10;;
17796;SDS011;55596;53.554;9.916;2022-09-09T11:50:29;2.97;;;1.17;;
17796;SDS011;55596;53.554;9.916;2022-09-09T11:53:05;5.70;;;1.30;;
17796;SDS011;55596;53.554;9.916;2022-09-09T11:55:45;4.35;;;1.15;;
17796;SDS011;55596;53.554;9.916;2022-09-09T11:58:15;4.38;;;0.98;;
17796;SDS011;55596;53.554;9.916;2022-09-09T12:00:44;3.15;;;1.30;;
17796;SDS011;55596;53.554;9.916;2022-09-09T12:06:09;4.15;;;1.20;;
17796;SDS011;55596;53.554;9.916;2022-09-09T12:08:42;3.67;;;1.10;;
17796;SDS011;55596;53.554;9.916;2022-09-09T12:11:11;4.25;;;1.50;;
17796;SDS011;55596;53.554;9.916;2022-09-09T12:13:51;3.35;;;1.15;;
17796;SDS011;55596;53.554;9.916;2022-09-09T12:16:27;2.75;;;1.00;;
17796;SDS011;55596;53.554;9.916;2022-09-09T12:19:04;5.10;;;1.45;;
17796;SDS011;55596;53.554;9.916;2022-09-09T12:21:34;3.63;;;1.38;;
17796;SDS011;55596;53.554;9.916;2022-09-09T12:24:07;3.38;;;1.17;;
17796;SDS011;55596;53.554;9.916;2022-09-09T12:26:36;3.80;;;1.23;;
17796;SDS011;55596;53.554;9.916;2022-09-09T12:29:10;4.75;;;1.52;;
17796;SDS011;55596;53.554;9.916;2022-09-09T12:31:44;3.28;;;1.15;;
17796;SDS011;55596;53.554;9.916;2022-09-09T12:34:20;3.95;;;1.10;;
17796;SDS011;55596;53.554;9.916;2022-09-09T12:36:58;4.00;;;1.20;;
17796;SDS011;55596;53.554;9.916;2022-09-09T12:39:32;3.65;;;1.35;;
17796;SDS011;55596;53.554;9.916;2022-09-09T12:42:01;3.35;;;1.23;;
17796;SDS011;55596;53.554;9.916;2022-09-09T12:44:29;4.25;;;2.90;;
17796;SDS011;55596;53.554;9.916;2022-09-09T12:46:58;7.55;;;1.92;;
17796;SDS011;55596;53.554;9.916;2022-09-09T12:49:31;2.88;;;1.30;;
17796;SDS011;55596;53.554;9.916;2022-09-09T12:52:03;3.03;;;1.30;;
17796;SDS011;55596;53.554;9.916;2022-09-09T12:54:35;5.95;;;1.20;;
17796;SDS011;55596;53.554;9.916;2022-09-09T12:57:03;5.55;;;1.80;;
17796;SDS011;55596;53.554;9.916;2022-09-09T12:59:35;3.63;;;1.40;;
17796;SDS011;55596;53.554;9.916;2022-09-09T13:02:11;5.90;;;1.73;;
17796;SDS011;55596;53.554;9.916;2022-09-09T13:04:49;3.80;;;1.20;;
17796;SDS011;55596;53.554;9.916;2022-09-09T13:07:17;3.25;;;1.50;;
17796;SDS011;55596;53.554;9.916;2022-09-09T13:09:45;4.43;;;1.43;;
17796;SDS011;55596;53.554;9.916;2022-09-09T13:12:14;4.77;;;1.90;;
17796;SDS011;55596;53.554;9.916;2022-09-09T13:14:43;7.33;;;2.20;;
17796;SDS011;55596;53.554;9.916;2022-09-09T13:17:17;4.40;;;2.00;;
17796;SDS011;55596;53.554;9.916;2022-09-09T13:19:46;7.20;;;1.93;;
17796;SDS011;55596;53.554;9.916;2022-09-09T13:22:19;5.33;;;1.83;;
17796;SDS011;55596;53.554;9.916;2022-09-09T13:24:48;2.67;;;1.07;;
17796;SDS011;55596;53.554;9.916;2022-09-09T13:27:28;6.97;;;1.33;;
17796;SDS011;55596;53.554;9.916;2022-09-09T13:29:57;8.87;;;1.43;;
17796;SDS011;55596;53.554;9.916;2022-09-09T13:32:25;5.10;;;1.80;;
17796;SDS011;55596;53.554;9.916;2022-09-09T13:34:55;6.40;;;1.90;;
17796;SDS011;55596;53.554;9.916;2022-09-09T13:37:26;4.63;;;2.07;;
17796;SDS011;55596;53.554;9.916;2022-09-09T13:39:57;6.87;;;2.60;;
17796;SDS011;55596;53.554;9.916;2022-09-09T13:42:24;5.30;;;2.17;;
17796;SDS011;55596;53.554;9.916;2022-09-09T13:44:53;4.17;;;2.40;;
17796;SDS011;55596;53.554;9.916;2022-09-09T13:47:26;5.63;;;2.80;;
17796;SDS011;55596;53.554;9.916;2022-09-09T13:49:56;10.67;;;2.93;;
17796;SDS011;55596;53.554;9.916;2022-09-09T13:52:24;6.73;;;3.17;;
17796;SDS011;55596;53.554;9.916;2022-09-09T13:54:56;8.27;;;3.13;;
17796;SDS011;55596;53.554;9.916;2022-09-09T13:57:24;6.00;;;2.70;;
17796;SDS011;55596;53.554;9.916;2022-09-09T13:59:52;7.33;;;2.83;;
17796;SDS011;55596;53.554;9.916;2022-09-09T14:02:20;8.20;;;3.00;;
17796;SDS011;55596;53.554;9.916;2022-09-09T14:04:48;9.40;;;3.83;;
17796;SDS011;55596;53.554;9.916;2022-09-09T14:07:16;10.60;;;4.07;;
17796;SDS011;55596;53.554;9.916;2022-09-09T14:09:45;7.10;;;3.70;;
17796;SDS011;55596;53.554;9.916;2022-09-09T14:12:15;7.63;;;3.80;;
17796;SDS011;55596;53.554;9.916;2022-09-09T14:14:43;7.70;;;4.00;;
17796;SDS011;55596;53.554;9.916;2022-09-09T14:17:10;10.53;;;4.43;;
17796;SDS011;55596;53.554;9.916;2022-09-09T14:19:37;11.83;;;5.00;;
17796;SDS011;55596;53.554;9.916;2022-09-09T14:22:04;8.50;;;5.37;;
17796;SDS011;55596;53.554;9.916;2022-09-09T14:24:30;8.90;;;5.47;;
17796;SDS011;55596;53.554;9.916;2022-09-09T14:26:59;13.57;;;5.80;;
17796;SDS011;55596;53.554;9.916;2022-09-09T14:29:26;12.53;;;6.27;;
17796;SDS011;55596;53.554;9.916;2022-09-09T14:31:52;8.67;;;4.67;;
17796;SDS011;55596;53.554;9.916;2022-09-09T14:34:19;9.07;;;4.17;;
17796;SDS011;55596;53.554;9.916;2022-09-09T14:36:46;8.37;;;3.63;;
17796;SDS011;55596;53.554;9.916;2022-09-09T14:39:13;7.73;;;3.87;;
17796;SDS011;55596;53.554;9.916;2022-09-09T14:41:40;6.87;;;3.67;;
17796;SDS011;55596;53.554;9.916;2022-09-09T14:44:08;8.33;;;3.57;;
17796;SDS011;55596;53.554;9.916;2022-09-09T14:46:35;8.50;;;4.10;;
17796;SDS011;55596;53.554;9.916;2022-09-09T14:49:02;4.73;;;3.30;;
17796;SDS011;55596;53.554;9.916;2022-09-09T14:51:29;8.10;;;3.50;;
17796;SDS011;55596;53.554;9.916;2022-09-09T14:53:57;5.57;;;3.43;;
17796;SDS011;55596;53.554;9.916;2022-09-09T14:56:25;6.77;;;3.33;;
17796;SDS011;55596;53.554;9.916;2022-09-09T14:58:55;6.00;;;3.40;;